Time;durP1;ratioP1;P1;durP2;ratioP2;P2;SDS_P1;SDS_P2;PMS_P1;PMS_P2;Temp;Humidity;BMP_temperature;BMP_pressure;BME280_temperature;BME280_humidity;BME280_pressure;Samples;Min_cycle;Max_cycle;Signal;HPM_P1;HPM_P2
2022/03/10 00:01:54;;;;;;;23.50;12.27;;;;;;;;;;5028230;28;20550;-76
2022/03/10 00:04:20;;;;;;;20.08;10.45;;;;;;;;;;5009400;28;20486;-75
2022/03/10 00:06:46;;;;;;;21.00;11.07;;;;;;;;;;5010064;28;20531;-76
2022/03/10 00:09:12;;;;;;;23.58;11.25;;;;;;;;;;4992787;28;20513;-76
2022/03/10 00:11:38;;;;;;;22.00;11.20;;;;;;;;;;5009397;28;20125;-76
2022/03/10 00:14:04;;;;;;;21.73;10.93;;;;;;;;;;4993601;28;20045;-76
2022/03/10 00:16:30;;;;;;;19.80;11.32;;;;;;;;;;4993080;28;20039;-76
2022/03/10 00:18:56;;;;;;;23.52;11.48;;;;;;;;;;5009452;28;20041;-76
2022/03/10 00:21:22;;;;;;;22.42;11.65;;;;;;;;;;5006461;28;20037;-75
2022/03/10 00:23:48;;;;;;;20.38;11.13;;;;;;;;;;5037372;28;20620;-75
2022/03/10 00:26:14;;;;;;;22.40;11.18;;;;;;;;;;5009638;28;20566;-76
2022/03/10 00:28:41;;;;;;;21.55;11.15;;;;;;;;;;5027303;28;20432;-76
2022/03/10 00:31:07;;;;;;;20.83;11.65;;;;;;;;;;5010066;28;20094;-76
2022/03/10 00:33:33;;;;;;;23.13;11.52;;;;;;;;;;5026794;28;20095;-76
2022/03/10 00:35:59;;;;;;;21.67;11.43;;;;;;;;;;5008278;28;20361;-76
2022/03/10 00:38:25;;;;;;;23.67;11.85;;;;;;;;;;4992905;28;20088;-76
2022/03/10 00:40:51;;;;;;;24.65;11.80;;;;;;;;;;5024682;28;20064;-76
2022/03/10 00:43:17;;;;;;;20.58;11.05;;;;;;;;;;5026432;28;20067;-75
2022/03/10 00:45:43;;;;;;;22.33;11.93;;;;;;;;;;5024641;28;20049;-75
2022/03/10 00:48:09;;;;;;;24.73;12.50;;;;;;;;;;4992950;28;20510;-75
2022/03/10 00:50:35;;;;;;;23.98;12.95;;;;;;;;;;4992656;28;20090;-75
2022/03/10 00:53:02;;;;;;;25.13;12.75;;;;;;;;;;5026981;28;20073;-75
2022/03/10 00:55:28;;;;;;;21.33;11.50;;;;;;;;;;4992452;28;20045;-76
2022/03/10 00:57:54;;;;;;;23.77;12.40;;;;;;;;;;5009241;28;20058;-75
2022/03/10 01:00:25;;;;;;;21.33;11.63;;;;;;;;;;5008336;28;20037;-76
2022/03/10 01:02:51;;;;;;;20.15;10.88;;;;;;;;;;5008710;28;20056;-76
2022/03/10 01:05:18;;;;;;;19.13;11.30;;;;;;;;;;5026194;28;20097;-75
2022/03/10 01:07:44;;;;;;;22.95;11.98;;;;;;;;;;5008884;28;20494;-76
2022/03/10 01:10:10;;;;;;;20.73;10.93;;;;;;;;;;5008947;28;20496;-75
2022/03/10 01:12:36;;;;;;;24.88;12.43;;;;;;;;;;5026891;28;20041;-76
2022/03/10 01:15:03;;;;;;;22.30;11.63;;;;;;;;;;5008792;28;20535;-75
2022/03/10 01:17:29;;;;;;;25.33;12.65;;;;;;;;;;4992573;28;20547;-76
2022/03/10 01:19:55;;;;;;;26.13;12.65;;;;;;;;;;5008526;28;20277;-76
2022/03/10 01:22:21;;;;;;;23.75;11.48;;;;;;;;;;5009660;28;20045;-76
2022/03/10 01:24:47;;;;;;;23.52;12.10;;;;;;;;;;4996179;28;20085;-76
2022/03/10 01:27:13;;;;;;;22.17;12.02;;;;;;;;;;5012001;28;20041;-76
2022/03/10 01:29:39;;;;;;;21.20;11.50;;;;;;;;;;5029936;28;20034;-76
2022/03/10 01:32:06;;;;;;;26.63;11.20;;;;;;;;;;5012328;28;20029;-76
2022/03/10 01:34:33;;;;;;;20.10;10.85;;;;;;;;;;4995502;28;20132;-76
2022/03/10 01:36:59;;;;;;;20.92;10.88;;;;;;;;;;5011873;28;20045;-75
2022/03/10 01:39:26;;;;;;;23.33;11.50;;;;;;;;;;5011996;28;20498;-76
2022/03/10 01:41:52;;;;;;;22.20;10.93;;;;;;;;;;5029532;28;20091;-75
2022/03/10 01:44:20;;;;;;;22.08;10.85;;;;;;;;;;4995079;28;20045;-76
2022/03/10 01:46:46;;;;;;;21.23;11.07;;;;;;;;;;5029435;28;20498;-76
2022/03/10 01:49:13;;;;;;;22.45;11.02;;;;;;;;;;5012133;28;20080;-76
2022/03/10 01:51:39;;;;;;;22.98;11.40;;;;;;;;;;5012571;28;20037;-75
2022/03/10 01:54:05;;;;;;;20.88;11.13;;;;;;;;;;5030093;28;20382;-76
2022/03/10 01:56:32;;;;;;;25.02;11.88;;;;;;;;;;5029940;28;20122;-75
2022/03/10 01:58:59;;;;;;;21.35;10.68;;;;;;;;;;5009542;28;20497;-76
2022/03/10 02:01:25;;;;;;;21.45;11.27;;;;;;;;;;5029052;28;20518;-76
2022/03/10 02:03:51;;;;;;;22.30;11.63;;;;;;;;;;5029465;28;20041;-76
2022/03/10 02:06:17;;;;;;;23.27;11.65;;;;;;;;;;5029179;28;20046;-76
2022/03/10 02:11:42;;;;;;;19.25;11.00;;;;;;;;;;5023636;28;20390;-74
2022/03/10 02:19:37;;;;;;;23.73;12.13;;;;;;;;;;5011048;28;20072;-76
2022/03/10 02:22:07;;;;;;;24.17;11.45;;;;;;;;;;5011280;28;20049;-76
2022/03/10 02:24:35;;;;;;;20.65;11.15;;;;;;;;;;5010629;28;20053;-76
2022/03/10 02:27:11;;;;;;;22.60;11.80;;;;;;;;;;5011597;28;20491;-75
2022/03/10 02:29:37;;;;;;;;;;;;;;;;;;5011799;28;20033;-74
2022/03/10 02:32:04;;;;;;;22.55;11.98;;;;;;;;;;5010795;28;20412;-75
2022/03/10 02:34:30;;;;;;;21.10;11.45;;;;;;;;;;5010702;28;20116;-75
2022/03/10 02:36:56;;;;;;;24.55;11.77;;;;;;;;;;5010943;28;20042;-76
2022/03/10 02:39:22;;;;;;;22.63;11.45;;;;;;;;;;5028612;28;20038;-76
2022/03/10 02:41:48;;;;;;;21.52;11.90;;;;;;;;;;4993997;28;20053;-75
2022/03/10 02:44:14;;;;;;;21.77;12.00;;;;;;;;;;5009882;28;20045;-74
2022/03/10 02:46:40;;;;;;;21.92;12.25;;;;;;;;;;5010276;28;20037;-74
2022/03/10 02:49:06;;;;;;;22.52;11.60;;;;;;;;;;5027701;28;20026;-75
2022/03/10 02:51:32;;;;;;;23.20;12.27;;;;;;;;;;5009702;28;20634;-76
2022/03/10 02:53:58;;;;;;;24.75;11.95;;;;;;;;;;5009922;28;20498;-76
2022/03/10 02:56:24;;;;;;;24.58;12.52;;;;;;;;;;5010015;28;20439;-76
2022/03/10 02:58:50;;;;;;;23.45;11.75;;;;;;;;;;4993920;28;20492;-75
2022/03/10 03:01:17;;;;;;;23.75;12.43;;;;;;;;;;5005356;28;20126;-75
2022/03/10 03:03:43;;;;;;;26.15;11.65;;;;;;;;;;5019372;28;20443;-74
2022/03/10 03:06:09;;;;;;;22.60;12.40;;;;;;;;;;4992090;28;20106;-75
2022/03/10 03:08:35;;;;;;;24.35;11.82;;;;;;;;;;5009285;28;20029;-74
2022/03/10 03:11:01;;;;;;;22.02;12.00;;;;;;;;;;5009535;28;20064;-75
2022/03/10 03:13:27;;;;;;;25.75;11.98;;;;;;;;;;5009632;28;20069;-75
2022/03/10 03:15:53;;;;;;;24.50;12.63;;;;;;;;;;4993261;28;20048;-76
2022/03/10 03:18:19;;;;;;;24.08;11.80;;;;;;;;;;5026771;28;20590;-76
2022/03/10 03:20:46;;;;;;;27.80;12.93;;;;;;;;;;5007400;28;20090;-77
2022/03/10 03:23:12;;;;;;;23.55;12.98;;;;;;;;;;5009317;28;20033;-77
2022/03/10 03:25:38;;;;;;;23.20;12.20;;;;;;;;;;5009518;28;20512;-75
2022/03/10 03:28:04;;;;;;;22.98;12.63;;;;;;;;;;4992902;28;20034;-76
2022/03/10 03:30:30;;;;;;;22.77;12.65;;;;;;;;;;5027068;28;20101;-77
2022/03/10 03:32:56;;;;;;;25.92;12.60;;;;;;;;;;5027005;28;20041;-76
2022/03/10 03:35:22;;;;;;;23.55;12.25;;;;;;;;;;5026756;28;20126;-76
2022/03/10 03:37:48;;;;;;;25.10;12.43;;;;;;;;;;5009411;28;20523;-76
2022/03/10 03:40:15;;;;;;;22.60;12.52;;;;;;;;;;4992552;28;20045;-77
2022/03/10 03:42:41;;;;;;;24.85;13.15;;;;;;;;;;4970143;28;1143066;-76
2022/03/10 03:45:07;;;;;;;24.80;12.50;;;;;;;;;;5009417;28;20051;-76
2022/03/10 03:47:33;;;;;;;25.58;12.35;;;;;;;;;;5027918;28;20029;-75
2022/03/10 03:49:59;;;;;;;23.27;12.48;;;;;;;;;;5010136;28;20045;-75
2022/03/10 03:52:25;;;;;;;25.88;12.68;;;;;;;;;;5009526;28;20120;-75
2022/03/10 03:54:51;;;;;;;24.40;13.25;;;;;;;;;;5027464;28;20081;-75
2022/03/10 03:57:17;;;;;;;24.88;12.25;;;;;;;;;;5009885;28;20079;-76
2022/03/10 03:59:44;;;;;;;26.58;13.60;;;;;;;;;;5009940;28;20044;-75
2022/03/10 04:02:10;;;;;;;24.83;12.38;;;;;;;;;;5025103;28;20053;-77
2022/03/10 04:04:36;;;;;;;27.27;12.73;;;;;;;;;;4993486;28;20402;-75
2022/03/10 04:07:02;;;;;;;23.42;11.77;;;;;;;;;;5009646;28;20084;-75
2022/03/10 04:09:28;;;;;;;25.80;13.20;;;;;;;;;;4993400;28;20041;-75
2022/03/10 04:11:54;;;;;;;21.77;12.07;;;;;;;;;;4993200;28;20080;-75
2022/03/10 04:14:20;;;;;;;22.88;12.23;;;;;;;;;;5009355;28;20045;-74
2022/03/10 04:16:46;;;;;;;24.30;12.80;;;;;;;;;;4993431;28;20406;-76
2022/03/10 04:19:12;;;;;;;28.60;12.73;;;;;;;;;;5009615;28;20041;-76
2022/03/10 04:21:38;;;;;;;24.40;12.35;;;;;;;;;;5019727;28;20471;-75
2022/03/10 04:24:05;;;;;;;26.38;13.18;;;;;;;;;;5024351;28;20402;-75
2022/03/10 04:26:31;;;;;;;26.70;12.98;;;;;;;;;;5009169;28;20037;-74
2022/03/10 04:28:57;;;;;;;26.48;12.88;;;;;;;;;;5009176;28;20034;-75
2022/03/10 04:31:23;;;;;;;24.75;12.20;;;;;;;;;;5009382;28;20093;-75
2022/03/10 04:33:49;;;;;;;27.73;13.65;;;;;;;;;;5026834;28;20514;-75
2022/03/10 04:36:16;;;;;;;24.67;12.35;;;;;;;;;;5009206;28;20025;-76
2022/03/10 04:38:42;;;;;;;26.88;13.38;;;;;;;;;;5009337;28;20082;-75
2022/03/10 04:41:08;;;;;;;25.40;12.65;;;;;;;;;;5008535;28;20049;-76
2022/03/10 04:43:34;;;;;;;24.20;12.95;;;;;;;;;;5009063;28;20034;-75
2022/03/10 04:46:00;;;;;;;24.52;12.75;;;;;;;;;;4992609;28;20475;-76
2022/03/10 04:48:26;;;;;;;25.13;13.75;;;;;;;;;;5009523;28;20456;-76
2022/03/10 04:50:53;;;;;;;24.38;13.13;;;;;;;;;;5008907;28;20049;-76
2022/03/10 04:53:19;;;;;;;23.70;13.25;;;;;;;;;;5026861;28;20037;-77
2022/03/10 04:55:45;;;;;;;28.20;12.85;;;;;;;;;;5006407;28;20076;-77
2022/03/10 04:58:11;;;;;;;23.05;12.27;;;;;;;;;;5009087;28;20546;-77
2022/03/10 05:00:37;;;;;;;24.13;12.88;;;;;;;;;;4989214;28;20501;-77
2022/03/10 05:03:03;;;;;;;26.58;13.02;;;;;;;;;;4987270;28;20053;-75
2022/03/10 05:05:29;;;;;;;24.02;12.07;;;;;;;;;;5003545;28;20060;-75
2022/03/10 05:07:55;;;;;;;27.35;12.68;;;;;;;;;;5004864;28;20083;-75
2022/03/10 05:10:21;;;;;;;25.20;12.18;;;;;;;;;;4974791;28;20071;-75
2022/03/10 05:12:50;;;;;;;25.38;12.98;;;;;;;;;;5008650;28;20402;-75
2022/03/10 05:15:18;;;;;;;23.77;12.48;;;;;;;;;;5019297;28;20175;-75
2022/03/10 05:17:44;;;;;;;24.30;12.88;;;;;;;;;;5009178;28;20077;-75
2022/03/10 05:20:10;;;;;;;21.67;11.98;;;;;;;;;;5026606;28;20090;-76
2022/03/10 05:22:43;;;;;;;24.33;11.93;;;;;;;;;;5008953;28;20053;-74
2022/03/10 05:25:10;;;;;;;25.52;12.93;;;;;;;;;;5009081;28;20482;-76
2022/03/10 05:27:36;;;;;;;26.23;12.45;;;;;;;;;;5008660;28;20042;-77
2022/03/10 05:30:03;;;;;;;24.70;13.00;;;;;;;;;;4993003;28;20042;-77
2022/03/10 05:32:29;;;;;;;24.52;12.55;;;;;;;;;;5008538;28;20041;-76
2022/03/10 05:34:55;;;;;;;22.48;12.43;;;;;;;;;;5009015;28;20088;-76
2022/03/10 05:37:21;;;;;;;25.42;13.05;;;;;;;;;;4992951;28;20389;-77
2022/03/10 05:39:47;;;;;;;23.42;12.20;;;;;;;;;;5026662;28;20037;-77
2022/03/10 05:42:13;;;;;;;26.92;12.57;;;;;;;;;;5059784;28;20040;-77
2022/03/10 05:44:39;;;;;;;30.23;12.98;;;;;;;;;;5069716;28;20040;-76
2022/03/10 05:47:06;;;;;;;27.80;13.18;;;;;;;;;;5069100;28;20032;-77
2022/03/10 05:49:32;;;;;;;24.40;12.38;;;;;;;;;;5085762;28;20040;-77
2022/03/10 05:51:58;;;;;;;27.17;13.25;;;;;;;;;;5085820;28;20504;-76
2022/03/10 05:54:24;;;;;;;27.08;13.30;;;;;;;;;;5068447;28;20942;-76
2022/03/10 05:56:50;;;;;;;23.88;12.90;;;;;;;;;;5078970;28;20094;-76
2022/03/10 05:59:17;;;;;;;24.95;13.65;;;;;;;;;;5085566;28;20039;-77
2022/03/10 06:01:43;;;;;;;25.92;12.73;;;;;;;;;;5070275;28;20557;-77
2022/03/10 06:04:09;;;;;;;24.88;13.23;;;;;;;;;;5068632;28;20044;-77
2022/03/10 06:06:35;;;;;;;25.58;12.95;;;;;;;;;;5070491;28;20043;-77
2022/03/10 06:09:01;;;;;;;25.20;12.55;;;;;;;;;;5084168;28;20036;-77
2022/03/10 06:11:27;;;;;;;25.90;13.23;;;;;;;;;;5091284;28;20044;-77
2022/03/10 06:13:54;;;;;;;25.45;12.77;;;;;;;;;;5084236;28;20043;-77
2022/03/10 06:16:20;;;;;;;24.92;12.70;;;;;;;;;;5089778;28;20115;-76
2022/03/10 06:18:46;;;;;;;26.85;12.75;;;;;;;;;;5073692;28;20086;-76
2022/03/10 06:21:12;;;;;;;24.85;12.82;;;;;;;;;;5092059;28;20043;-76
2022/03/10 06:23:38;;;;;;;24.10;12.50;;;;;;;;;;5090510;28;20528;-76
2022/03/10 06:26:04;;;;;;;25.55;12.40;;;;;;;;;;5074669;28;20074;-75
2022/03/10 06:28:31;;;;;;;26.23;12.23;;;;;;;;;;5088926;28;20039;-77
2022/03/10 06:30:57;;;;;;;22.92;12.35;;;;;;;;;;5090486;28;20032;-77
2022/03/10 06:33:23;;;;;;;27.75;11.77;;;;;;;;;;5091130;28;20032;-77
2022/03/10 06:35:49;;;;;;;21.90;11.82;;;;;;;;;;5074421;28;20076;-75
2022/03/10 06:38:15;;;;;;;28.42;12.82;;;;;;;;;;5075771;28;20047;-75
2022/03/10 06:40:41;;;;;;;23.00;11.82;;;;;;;;;;5070697;28;20393;-77
2022/03/10 06:43:08;;;;;;;25.08;12.88;;;;;;;;;;5011440;28;20417;-76
2022/03/10 06:45:34;;;;;;;24.00;13.50;;;;;;;;;;5011235;28;20045;-77
2022/03/10 06:48:00;;;;;;;29.10;13.15;;;;;;;;;;5029197;28;20041;-77
2022/03/10 06:50:28;;;;;;;25.48;12.80;;;;;;;;;;5011147;28;20037;-75
2022/03/10 06:52:56;;;;;;;22.98;12.10;;;;;;;;;;5028906;28;20048;-74
2022/03/10 06:55:23;;;;;;;22.60;12.40;;;;;;;;;;5010646;28;20081;-77
2022/03/10 06:57:49;;;;;;;22.98;13.10;;;;;;;;;;5011224;28;20094;-77
2022/03/10 07:00:15;;;;;;;23.25;13.23;;;;;;;;;;5028205;28;20037;-77
2022/03/10 07:02:41;;;;;;;27.67;13.63;;;;;;;;;;4994674;28;20057;-77
2022/03/10 07:05:08;;;;;;;22.88;12.82;;;;;;;;;;5010630;28;20049;-77
2022/03/10 07:07:35;;;;;;;23.30;12.85;;;;;;;;;;5010558;28;20066;-77
2022/03/10 07:10:01;;;;;;;24.23;13.85;;;;;;;;;;5028943;28;20041;-76
2022/03/10 07:12:28;;;;;;;24.42;13.55;;;;;;;;;;4994664;28;20486;-76
2022/03/10 07:14:54;;;;;;;24.35;13.82;;;;;;;;;;5010884;28;20052;-76
2022/03/10 07:17:20;;;;;;;24.00;12.73;;;;;;;;;;5010779;28;20044;-76
2022/03/10 07:19:46;;;;;;;24.35;13.63;;;;;;;;;;5010010;28;20551;-76
2022/03/10 07:22:16;;;;;;;21.02;13.35;;;;;;;;;;5028578;28;20033;-76
2022/03/10 07:24:42;;;;;;;21.58;13.55;;;;;;;;;;5028714;28;20148;-76
2022/03/10 07:27:09;;;;;;;23.45;13.57;;;;;;;;;;5028571;28;20045;-77
2022/03/10 07:29:35;;;;;;;20.17;12.70;;;;;;;;;;4994032;28;20117;-77
2022/03/10 07:32:02;;;;;;;21.33;13.05;;;;;;;;;;5010995;28;20042;-77
2022/03/10 07:34:28;;;;;;;22.25;13.23;;;;;;;;;;5028307;28;20061;-77
2022/03/10 07:36:54;;;;;;;22.67;14.20;;;;;;;;;;5028375;28;20076;-77
2022/03/10 07:39:20;;;;;;;23.27;13.63;;;;;;;;;;5010420;28;20043;-77
2022/03/10 07:41:46;;;;;;;21.45;13.40;;;;;;;;;;5027736;28;20075;-77
2022/03/10 07:44:13;;;;;;;22.30;13.60;;;;;;;;;;5009583;28;20087;-76
2022/03/10 07:46:39;;;;;;;21.33;13.27;;;;;;;;;;5027890;28;20069;-78
2022/03/10 07:49:05;;;;;;;20.20;13.20;;;;;;;;;;5010284;28;20091;-76
2022/03/10 07:51:31;;;;;;;22.17;13.63;;;;;;;;;;5020664;28;20429;-78
2022/03/10 07:53:57;;;;;;;19.30;12.90;;;;;;;;;;4994118;28;20041;-76
2022/03/10 07:56:23;;;;;;;24.23;13.68;;;;;;;;;;5010109;28;20494;-76
2022/03/10 07:58:50;;;;;;;24.10;13.57;;;;;;;;;;5009869;28;20041;-75
2022/03/10 08:01:16;;;;;;;23.42;13.77;;;;;;;;;;5009796;28;20037;-77
2022/03/10 08:03:42;;;;;;;25.08;13.40;;;;;;;;;;5009509;28;20087;-76
2022/03/10 08:06:08;;;;;;;27.45;13.10;;;;;;;;;;4993516;28;20075;-75
2022/03/10 08:08:35;;;;;;;22.08;13.77;;;;;;;;;;5009622;28;20040;-77
2022/03/10 08:11:03;;;;;;;24.27;14.63;;;;;;;;;;5010325;28;20045;-76
2022/03/10 08:13:31;;;;;;;21.70;13.45;;;;;;;;;;5009657;28;20033;-75
2022/03/10 08:15:57;;;;;;;21.88;13.57;;;;;;;;;;5027691;28;20330;-75
2022/03/10 08:18:23;;;;;;;22.52;13.65;;;;;;;;;;5009719;28;20048;-76
2022/03/10 08:20:50;;;;;;;26.60;13.27;;;;;;;;;;4993519;28;20045;-77
2022/03/10 08:23:18;;;;;;;22.95;14.13;;;;;;;;;;5027367;28;20112;-76
2022/03/10 08:25:45;;;;;;;23.25;13.32;;;;;;;;;;5027451;28;20505;-77
2022/03/10 08:28:11;;;;;;;20.85;13.20;;;;;;;;;;5010256;28;20561;-75
2022/03/10 08:30:38;;;;;;;22.83;14.40;;;;;;;;;;5009007;28;20037;-75
2022/03/10 08:33:04;;;;;;;22.52;14.00;;;;;;;;;;4993644;28;20082;-77
2022/03/10 08:35:31;;;;;;;23.38;13.75;;;;;;;;;;5009318;28;20396;-77
2022/03/10 08:37:57;;;;;;;22.50;14.30;;;;;;;;;;4993856;28;20063;-77
2022/03/10 08:40:23;;;;;;;23.83;14.40;;;;;;;;;;5008747;28;20041;-77
2022/03/10 08:42:50;;;;;;;23.30;15.00;;;;;;;;;;5026697;28;20050;-76
2022/03/10 08:45:16;;;;;;;27.50;15.15;;;;;;;;;;4992784;28;20103;-77
2022/03/10 08:47:43;;;;;;;23.08;14.45;;;;;;;;;;5007262;28;20068;-77
2022/03/10 08:50:09;;;;;;;21.20;14.25;;;;;;;;;;4993292;28;20037;-75
2022/03/10 08:52:35;;;;;;;21.75;13.85;;;;;;;;;;5009249;28;20398;-74
2022/03/10 08:55:03;;;;;;;21.70;14.32;;;;;;;;;;5009165;28;20050;-75
2022/03/10 08:57:29;;;;;;;23.60;14.07;;;;;;;;;;4992741;28;20049;-75
2022/03/10 08:59:55;;;;;;;20.35;14.18;;;;;;;;;;4992991;28;20049;-76
2022/03/10 09:02:21;;;;;;;21.02;14.93;;;;;;;;;;5008618;28;20498;-75
2022/03/10 09:04:47;;;;;;;23.30;14.77;;;;;;;;;;5026611;28;20201;-75
2022/03/10 09:07:13;;;;;;;21.80;14.65;;;;;;;;;;5009470;28;20506;-73
2022/03/10 09:09:40;;;;;;;20.85;14.95;;;;;;;;;;5026469;28;20367;-75
2022/03/10 09:12:06;;;;;;;22.27;15.45;;;;;;;;;;5009040;28;20048;-75
2022/03/10 09:14:32;;;;;;;20.40;14.93;;;;;;;;;;5009158;28;20048;-75
2022/03/10 09:16:58;;;;;;;24.02;15.48;;;;;;;;;;5026572;28;20046;-73
2022/03/10 09:19:24;;;;;;;20.67;14.20;;;;;;;;;;5009247;28;20451;-75
2022/03/10 09:21:51;;;;;;;21.00;14.88;;;;;;;;;;4993086;28;20042;-76
2022/03/10 09:24:17;;;;;;;26.85;15.25;;;;;;;;;;4992537;28;20045;-76
2022/03/10 09:26:43;;;;;;;24.25;16.88;;;;;;;;;;4992697;28;20075;-76
2022/03/10 09:29:09;;;;;;;21.05;14.55;;;;;;;;;;5026985;28;20421;-75
2022/03/10 09:31:35;;;;;;;21.75;15.27;;;;;;;;;;5008989;28;20435;-77
2022/03/10 09:34:04;;;;;;;22.23;15.35;;;;;;;;;;5009062;28;20064;-76
2022/03/10 09:36:30;;;;;;;21.90;14.52;;;;;;;;;;5009120;28;20510;-76
2022/03/10 09:38:56;;;;;;;22.38;14.32;;;;;;;;;;5008863;28;20080;-76
2022/03/10 09:41:22;;;;;;;21.23;15.15;;;;;;;;;;5007822;28;20106;-76
2022/03/10 09:43:49;;;;;;;21.98;14.57;;;;;;;;;;5010493;28;20041;-74
2022/03/10 09:46:15;;;;;;;21.33;15.02;;;;;;;;;;5011592;28;20049;-74
2022/03/10 09:48:41;;;;;;;23.75;15.00;;;;;;;;;;5012367;28;20045;-74
2022/03/10 09:51:08;;;;;;;20.70;15.85;;;;;;;;;;5011889;28;20045;-74
2022/03/10 09:53:35;;;;;;;22.25;15.45;;;;;;;;;;4995307;28;20041;-72
2022/03/10 09:56:05;;;;;;;21.52;15.00;;;;;;;;;;5012308;28;20046;-75
2022/03/10 09:58:31;;;;;;;21.05;14.48;;;;;;;;;;4995709;28;20041;-75
2022/03/10 10:01:01;;;;;;;21.40;15.38;;;;;;;;;;5011682;28;20056;-75
2022/03/10 10:03:27;;;;;;;21.95;15.05;;;;;;;;;;5011839;28;20042;-76
2022/03/10 10:06:00;;;;;;;22.58;14.43;;;;;;;;;;5022002;28;20046;-75
2022/03/10 10:08:27;;;;;;;20.10;14.98;;;;;;;;;;5029330;28;20562;-76
2022/03/10 10:10:56;;;;;;;20.05;14.73;;;;;;;;;;5011563;28;20086;-76
2022/03/10 10:13:25;;;;;;;23.08;15.25;;;;;;;;;;5011334;28;20123;-76
2022/03/10 10:15:56;;;;;;;26.55;15.20;;;;;;;;;;5011931;28;20049;-74
2022/03/10 10:18:22;;;;;;;20.23;15.30;;;;;;;;;;5011743;28;20490;-76
2022/03/10 10:20:52;;;;;;;21.85;15.13;;;;;;;;;;5012240;28;20546;-76
2022/03/10 10:23:29;;;;;;;22.52;15.75;;;;;;;;;;5029365;28;20034;-75
2022/03/10 10:25:55;;;;;;;21.95;14.60;;;;;;;;;;5029558;28;20338;-75
2022/03/10 10:28:27;;;;;;;20.58;15.18;;;;;;;;;;5029320;28;20112;-75
2022/03/10 10:30:56;;;;;;;19.00;14.90;;;;;;;;;;5012128;28;20064;-75
2022/03/10 10:33:22;;;;;;;21.50;14.93;;;;;;;;;;5011411;28;20056;-75
2022/03/10 10:35:48;;;;;;;19.70;14.68;;;;;;;;;;5011605;28;20098;-75
2022/03/10 10:38:28;;;;;;;20.77;14.95;;;;;;;;;;5011582;28;20065;-74
2022/03/10 10:41:14;;;;;;;20.05;15.52;;;;;;;;;;4995003;28;20098;-74
2022/03/10 10:43:41;;;;;;;22.40;16.02;;;;;;;;;;5011072;28;20077;-75
2022/03/10 10:46:07;;;;;;;20.92;15.20;;;;;;;;;;5011233;28;20290;-74
2022/03/10 10:48:45;;;;;;;17.83;14.60;;;;;;;;;;5011055;28;20471;-72
2022/03/10 10:51:12;;;;;;;21.83;15.93;;;;;;;;;;5003803;28;20077;-74
2022/03/10 10:53:39;;;;;;;22.25;16.15;;;;;;;;;;5010395;28;20098;-75
2022/03/10 10:56:06;;;;;;;21.35;15.63;;;;;;;;;;5011239;28;20520;-75
2022/03/10 10:58:32;;;;;;;22.05;15.90;;;;;;;;;;5028564;28;20047;-74
2022/03/10 11:00:58;;;;;;;21.23;15.05;;;;;;;;;;4994846;28;20039;-75
2022/03/10 11:03:25;;;;;;;22.50;16.10;;;;;;;;;;5010639;28;20098;-75
2022/03/10 11:05:52;;;;;;;23.27;15.68;;;;;;;;;;5010892;28;20046;-75
2022/03/10 11:08:22;;;;;;;21.50;15.90;;;;;;;;;;5011548;28;20029;-75
2022/03/10 11:10:49;;;;;;;23.83;16.45;;;;;;;;;;5011067;28;20049;-75
2022/03/10 11:13:15;;;;;;;23.17;14.60;;;;;;;;;;5010971;28;20091;-73
2022/03/10 11:15:42;;;;;;;21.67;15.80;;;;;;;;;;5010663;28;20057;-75
2022/03/10 11:18:09;;;;;;;23.05;15.88;;;;;;;;;;5028404;28;20075;-73
2022/03/10 11:20:35;;;;;;;24.30;16.77;;;;;;;;;;5010771;28;20072;-73
2022/03/10 11:23:11;;;;;;;23.00;15.95;;;;;;;;;;5011052;28;20547;-72
2022/03/10 11:25:46;;;;;;;23.42;16.17;;;;;;;;;;5008209;28;20089;-75
2022/03/10 11:28:21;;;;;;;20.77;15.63;;;;;;;;;;5028770;28;20382;-74
2022/03/10 11:30:51;;;;;;;23.83;16.15;;;;;;;;;;4994362;28;20072;-73
2022/03/10 11:33:17;;;;;;;25.23;15.45;;;;;;;;;;5028592;28;20037;-73
2022/03/10 11:35:48;;;;;;;23.65;15.77;;;;;;;;;;5028153;28;20120;-75
2022/03/10 11:38:15;;;;;;;27.35;16.70;;;;;;;;;;5010322;28;20037;-75
2022/03/10 11:40:42;;;;;;;25.48;17.35;;;;;;;;;;5027419;28;20038;-74
2022/03/10 11:43:09;;;;;;;25.48;16.75;;;;;;;;;;5010302;28;20049;-75
2022/03/10 11:45:35;;;;;;;24.40;16.38;;;;;;;;;;4993450;28;20056;-75
2022/03/10 11:48:20;;;;;;;22.73;16.02;;;;;;;;;;5010729;28;20493;-74
2022/03/10 11:50:46;;;;;;;24.55;16.27;;;;;;;;;;5028079;28;20036;-75
2022/03/10 11:53:12;;;;;;;24.58;17.38;;;;;;;;;;5028322;28;20068;-75
2022/03/10 11:55:50;;;;;;;24.70;16.20;;;;;;;;;;5027404;28;20071;-74
2022/03/10 11:58:17;;;;;;;25.50;16.98;;;;;;;;;;5010855;28;20393;-75
2022/03/10 12:00:44;;;;;;;23.25;15.88;;;;;;;;;;5027144;28;20534;-73
2022/03/10 12:03:10;;;;;;;24.08;16.38;;;;;;;;;;5009802;28;20120;-73
2022/03/10 12:05:52;;;;;;;23.92;17.08;;;;;;;;;;5008839;28;20042;-74
2022/03/10 12:08:19;;;;;;;25.08;17.13;;;;;;;;;;5009970;28;20116;-74
2022/03/10 12:10:47;;;;;;;26.10;17.25;;;;;;;;;;4993528;28;20053;-74
2022/03/10 12:13:25;;;;;;;26.45;17.10;;;;;;;;;;4993939;28;20041;-75
2022/03/10 12:15:52;;;;;;;25.20;17.00;;;;;;;;;;5028381;28;20029;-74
2022/03/10 12:18:24;;;;;;;26.05;17.42;;;;;;;;;;5009962;28;20120;-73
2022/03/10 12:20:54;;;;;;;25.88;17.65;;;;;;;;;;4993982;28;20034;-75
2022/03/10 12:23:22;;;;;;;25.80;17.23;;;;;;;;;;5010049;28;20037;-74
2022/03/10 12:25:53;;;;;;;24.35;17.20;;;;;;;;;;5010018;28;20077;-74
2022/03/10 12:28:24;;;;;;;24.63;16.67;;;;;;;;;;4991718;28;20141;-74
2022/03/10 12:30:52;;;;;;;24.48;16.95;;;;;;;;;;5010269;28;20135;-74
2022/03/10 12:33:18;;;;;;;27.20;16.63;;;;;;;;;;5027869;28;20066;-74
2022/03/10 12:35:45;;;;;;;23.40;16.13;;;;;;;;;;5009766;28;20084;-75
2022/03/10 12:38:11;;;;;;;23.70;16.08;;;;;;;;;;5010156;28;20450;-75
2022/03/10 12:40:38;;;;;;;25.63;17.55;;;;;;;;;;5019850;28;20037;-75
2022/03/10 12:43:06;;;;;;;23.52;16.05;;;;;;;;;;5009028;28;20085;-74
2022/03/10 12:45:32;;;;;;;25.23;16.77;;;;;;;;;;5009309;28;20037;-75
2022/03/10 12:48:08;;;;;;;24.13;16.48;;;;;;;;;;5009428;28;20041;-74
2022/03/10 12:50:34;;;;;;;25.88;17.27;;;;;;;;;;5009367;28;20077;-74
2022/03/10 12:53:10;;;;;;;25.83;16.35;;;;;;;;;;5027549;28;20401;-73
2022/03/10 12:55:36;;;;;;;26.27;16.40;;;;;;;;;;5009240;28;20044;-74
2022/03/10 12:58:03;;;;;;;26.77;16.23;;;;;;;;;;5008609;28;20052;-73
2022/03/10 13:00:29;;;;;;;25.23;15.57;;;;;;;;;;5008884;28;20056;-74
2022/03/10 13:02:58;;;;;;;22.65;15.13;;;;;;;;;;5009516;28;20056;-73
2022/03/10 13:05:26;;;;;;;23.27;14.82;;;;;;;;;;5008925;28;20106;-73
2022/03/10 13:07:54;;;;;;;23.98;15.55;;;;;;;;;;4993165;28;20041;-74
2022/03/10 13:10:20;;;;;;;23.25;14.05;;;;;;;;;;4992652;28;20424;-72
2022/03/10 13:12:48;;;;;;;29.10;15.20;;;;;;;;;;5009274;28;20363;-73
2022/03/10 13:15:17;;;;;;;25.02;14.43;;;;;;;;;;5009471;28;20098;-73
2022/03/10 13:17:44;;;;;;;24.83;14.77;;;;;;;;;;5011010;28;20145;-73
2022/03/10 13:20:11;;;;;;;25.02;14.95;;;;;;;;;;5012566;28;20130;-74
2022/03/10 13:22:37;;;;;;;24.50;14.48;;;;;;;;;;5012159;28;20486;-74
2022/03/10 13:25:03;;;;;;;27.08;14.95;;;;;;;;;;4996143;28;20038;-73
2022/03/10 13:27:30;;;;;;;23.42;14.75;;;;;;;;;;4995907;28;20030;-75
2022/03/10 13:29:57;;;;;;;27.73;14.88;;;;;;;;;;5012588;28;20075;-74
2022/03/10 13:32:24;;;;;;;25.80;14.40;;;;;;;;;;5013292;28;20102;-73
2022/03/10 13:34:51;;;;;;;23.25;14.07;;;;;;;;;;5012522;28;20041;-73
2022/03/10 13:37:17;;;;;;;25.65;15.25;;;;;;;;;;5030183;28;20041;-73
2022/03/10 13:39:45;;;;;;;29.27;15.70;;;;;;;;;;5012330;28;20413;-72
2022/03/10 13:42:12;;;;;;;27.38;15.27;;;;;;;;;;5011508;28;20058;-73
2022/03/10 13:44:38;;;;;;;24.80;14.68;;;;;;;;;;5012247;28;20402;-74
2022/03/10 13:47:09;;;;;;;24.70;14.60;;;;;;;;;;4996002;28;20057;-74
2022/03/10 13:49:46;;;;;;;24.65;14.90;;;;;;;;;;5029669;28;20041;-74
2022/03/10 13:52:13;;;;;;;27.42;14.88;;;;;;;;;;5014708;28;20033;-75
2022/03/10 13:54:39;;;;;;;26.60;15.43;;;;;;;;;;5011810;28;20056;-74
2022/03/10 13:57:05;;;;;;;24.30;15.45;;;;;;;;;;5029707;28;20056;-74
2022/03/10 13:59:31;;;;;;;27.42;17.13;;;;;;;;;;5011673;28;20079;-75
2022/03/10 14:01:57;;;;;;;30.80;17.42;;;;;;;;;;5012124;28;20169;-75
2022/03/10 14:04:24;;;;;;;28.60;15.80;;;;;;;;;;5011732;28;20053;-75
2022/03/10 14:06:51;;;;;;;31.45;17.42;;;;;;;;;;5011568;28;20518;-74
2022/03/10 14:09:21;;;;;;;27.45;16.30;;;;;;;;;;5029992;28;20506;-75
2022/03/10 14:11:50;;;;;;;25.83;15.20;;;;;;;;;;5011873;28;20042;-75
2022/03/10 14:14:29;;;;;;;25.60;14.43;;;;;;;;;;5011661;28;20045;-75
2022/03/10 14:16:55;;;;;;;26.27;14.23;;;;;;;;;;5029550;28;20094;-76
2022/03/10 14:19:34;;;;;;;25.95;14.23;;;;;;;;;;5011619;28;20080;-75
2022/03/10 14:22:01;;;;;;;27.08;14.02;;;;;;;;;;5012170;28;20091;-75
2022/03/10 14:24:28;;;;;;;24.25;13.57;;;;;;;;;;5029213;28;20053;-74